sensor_id;sensor_type;location;lat;lon;timestamp;pressure;altitude;pressure_sealevel;temperature;humidity
69713;BME280;56980;51.826;4.424;2022-11-20T00:01:22;101508.00;;;2.19;65.99
69713;BME280;56980;51.826;4.424;2022-11-20T00:03:48;101523.72;;;2.24;66.31
69713;BME280;56980;51.826;4.424;2022-11-20T00:06:17;101442.50;;;1.73;66.25
69713;BME280;56980;51.826;4.424;2022-11-20T00:08:44;101518.38;;;2.24;66.14
69713;BME280;56980;51.826;4.424;2022-11-20T00:11:16;101421.44;;;1.68;65.81
69713;BME280;56980;51.826;4.424;2022-11-20T00:13:44;101505.16;;;2.35;66.38
69713;BME280;56980;51.826;4.424;2022-11-20T00:16:11;101483.88;;;2.16;66.00
69713;BME280;56980;51.826;4.424;2022-11-20T00:18:37;101511.53;;;2.27;65.86
69713;BME280;56980;51.826;4.424;2022-11-20T00:21:03;101527.69;;;2.37;65.26
69713;BME280;56980;51.826;4.424;2022-11-20T00:23:29;101525.34;;;2.32;66.72
69713;BME280;56980;51.826;4.424;2022-11-20T00:25:55;101496.09;;;2.13;66.60
69713;BME280;56980;51.826;4.424;2022-11-20T00:28:21;101514.66;;;2.32;66.62
69713;BME280;56980;51.826;4.424;2022-11-20T00:30:46;101414.66;;;1.74;67.07
69713;BME280;56980;51.826;4.424;2022-11-20T00:33:11;101471.28;;;2.16;66.81
69713;BME280;56980;51.826;4.424;2022-11-20T00:35:37;101449.16;;;1.86;67.22
69713;BME280;56980;51.826;4.424;2022-11-20T00:38:02;101458.50;;;2.03;67.41
69713;BME280;56980;51.826;4.424;2022-11-20T00:40:28;101422.56;;;1.67;67.96
69713;BME280;56980;51.826;4.424;2022-11-20T00:42:53;101492.63;;;2.13;67.80
69713;BME280;56980;51.826;4.424;2022-11-20T00:45:19;101430.97;;;1.69;67.88
69713;BME280;56980;51.826;4.424;2022-11-20T00:47:44;101414.59;;;1.70;68.00
69713;BME280;56980;51.826;4.424;2022-11-20T00:50:10;101465.38;;;2.00;67.74
69713;BME280;56980;51.826;4.424;2022-11-20T00:52:35;101454.81;;;1.81;68.30
69713;BME280;56980;51.826;4.424;2022-11-20T00:55:01;101481.44;;;2.04;68.61
69713;BME280;56980;51.826;4.424;2022-11-20T00:57:26;101506.78;;;2.13;68.73
69713;BME280;56980;51.826;4.424;2022-11-20T00:59:51;101495.16;;;2.02;68.60
69713;BME280;56980;51.826;4.424;2022-11-20T01:02:17;101516.34;;;2.14;68.84
69713;BME280;56980;51.826;4.424;2022-11-20T01:08:04;101493.75;;;2.08;69.53
69713;BME280;56980;51.826;4.424;2022-11-20T01:13:52;101503.56;;;2.01;69.31
69713;BME280;56980;51.826;4.424;2022-11-20T01:19:40;101504.72;;;2.03;69.22
69713;BME280;56980;51.826;4.424;2022-11-20T01:22:05;101509.63;;;1.97;69.28
69713;BME280;56980;51.826;4.424;2022-11-20T01:24:31;101495.09;;;1.95;69.23
69713;BME280;56980;51.826;4.424;2022-11-20T01:26:56;101463.97;;;1.80;69.34
69713;BME280;56980;51.826;4.424;2022-11-20T01:29:23;101508.22;;;2.07;69.50
69713;BME280;56980;51.826;4.424;2022-11-20T01:31:49;101510.13;;;2.07;69.78
69713;BME280;56980;51.826;4.424;2022-11-20T01:34:17;101508.63;;;2.09;69.50
69713;BME280;56980;51.826;4.424;2022-11-20T01:36:44;101452.00;;;1.70;70.25
69713;BME280;56980;51.826;4.424;2022-11-20T01:39:13;101496.63;;;1.96;70.17
69713;BME280;56980;51.826;4.424;2022-11-20T01:41:40;101489.66;;;1.88;70.48
69713;BME280;56980;51.826;4.424;2022-11-20T01:44:53;101497.81;;;1.98;70.39
69713;BME280;56980;51.826;4.424;2022-11-20T01:47:40;101496.72;;;2.03;70.08
69713;BME280;56980;51.826;4.424;2022-11-20T01:50:20;101500.22;;;2.07;69.95
69713;BME280;56980;51.826;4.424;2022-11-20T01:52:51;101471.13;;;1.76;70.04
69713;BME280;56980;51.826;4.424;2022-11-20T01:55:31;101450.34;;;1.62;69.96
69713;BME280;56980;51.826;4.424;2022-11-20T01:57:59;101469.72;;;1.82;70.54
69713;BME280;56980;51.826;4.424;2022-11-20T02:00:26;101436.16;;;1.54;70.88
69713;BME280;56980;51.826;4.424;2022-11-20T02:02:54;101404.13;;;1.32;71.21
69713;BME280;56980;51.826;4.424;2022-11-20T02:05:28;101424.94;;;1.45;70.83
69713;BME280;56980;51.826;4.424;2022-11-20T02:07:56;101485.81;;;1.89;71.09
69713;BME280;56980;51.826;4.424;2022-11-20T02:10:23;101483.44;;;1.80;70.95
69713;BME280;56980;51.826;4.424;2022-11-20T02:12:48;101452.97;;;1.58;71.37
69713;BME280;56980;51.826;4.424;2022-11-20T02:15:33;101463.00;;;1.65;71.61
69713;BME280;56980;51.826;4.424;2022-11-20T02:17:59;101483.09;;;1.82;71.25
69713;BME280;56980;51.826;4.424;2022-11-20T02:20:25;101457.69;;;1.69;71.04
69713;BME280;56980;51.826;4.424;2022-11-20T02:22:55;101470.75;;;1.74;71.09
69713;BME280;56980;51.826;4.424;2022-11-20T02:25:23;101477.31;;;1.80;70.90
69713;BME280;56980;51.826;4.424;2022-11-20T02:27:53;101475.41;;;1.80;70.98
69713;BME280;56980;51.826;4.424;2022-11-20T02:30:18;101427.19;;;1.43;71.66
69713;BME280;56980;51.826;4.424;2022-11-20T02:32:44;101426.47;;;1.46;71.11
69713;BME280;56980;51.826;4.424;2022-11-20T02:37:59;101423.41;;;1.44;71.14
69713;BME280;56980;51.826;4.424;2022-11-20T02:40:25;101388.78;;;1.25;71.41
69713;BME280;56980;51.826;4.424;2022-11-20T02:42:56;101446.59;;;1.67;71.34
69713;BME280;56980;51.826;4.424;2022-11-20T02:45:22;101414.69;;;1.47;71.35
69713;BME280;56980;51.826;4.424;2022-11-20T02:47:48;101434.19;;;1.51;71.24
69713;BME280;56980;51.826;4.424;2022-11-20T02:50:14;101375.34;;;1.18;71.31
69713;BME280;56980;51.826;4.424;2022-11-20T02:52:39;101418.69;;;1.34;71.34
69713;BME280;56980;51.826;4.424;2022-11-20T02:55:05;101382.81;;;1.09;71.75
69713;BME280;56980;51.826;4.424;2022-11-20T02:57:33;101421.63;;;1.55;71.61
69713;BME280;56980;51.826;4.424;2022-11-20T02:59:59;101416.72;;;1.57;71.42
69713;BME280;56980;51.826;4.424;2022-11-20T03:02:24;101433.97;;;1.64;71.10
69713;BME280;56980;51.826;4.424;2022-11-20T03:04:50;101440.94;;;1.72;71.29
69713;BME280;56980;51.826;4.424;2022-11-20T03:07:15;101433.78;;;1.79;71.24
69713;BME280;56980;51.826;4.424;2022-11-20T03:09:40;101372.03;;;1.28;71.01
69713;BME280;56980;51.826;4.424;2022-11-20T03:12:09;101386.66;;;1.34;71.18
69713;BME280;56980;51.826;4.424;2022-11-20T03:14:34;101376.56;;;1.24;71.11
69713;BME280;56980;51.826;4.424;2022-11-20T03:17:02;101402.03;;;1.44;71.46
69713;BME280;56980;51.826;4.424;2022-11-20T03:19:28;101356.56;;;1.11;71.55
69713;BME280;56980;51.826;4.424;2022-11-20T03:21:55;101359.63;;;1.13;71.06
69713;BME280;56980;51.826;4.424;2022-11-20T03:24:21;101397.44;;;1.41;71.15
69713;BME280;56980;51.826;4.424;2022-11-20T03:26:46;101364.34;;;1.23;70.71
69713;BME280;56980;51.826;4.424;2022-11-20T03:29:12;101345.88;;;1.11;71.22
69713;BME280;56980;51.826;4.424;2022-11-20T03:31:39;101422.13;;;1.61;71.08
69713;BME280;56980;51.826;4.424;2022-11-20T03:34:06;101329.72;;;1.00;71.39
69713;BME280;56980;51.826;4.424;2022-11-20T03:36:38;101351.91;;;1.08;71.46
69713;BME280;56980;51.826;4.424;2022-11-20T03:39:04;101389.66;;;1.33;71.33
69713;BME280;56980;51.826;4.424;2022-11-20T03:41:31;101330.50;;;1.01;71.43
69713;BME280;56980;51.826;4.424;2022-11-20T03:43:58;101412.00;;;1.47;71.44
69713;BME280;56980;51.826;4.424;2022-11-20T03:46:25;101385.31;;;1.21;72.14
69713;BME280;56980;51.826;4.424;2022-11-20T03:48:51;101326.19;;;0.93;72.10
69713;BME280;56980;51.826;4.424;2022-11-20T03:51:18;101350.50;;;1.14;72.18
69713;BME280;56980;51.826;4.424;2022-11-20T03:53:45;101391.25;;;1.37;72.31
69713;BME280;56980;51.826;4.424;2022-11-20T03:56:12;101346.19;;;1.06;72.09
69713;BME280;56980;51.826;4.424;2022-11-20T03:58:39;101324.00;;;1.02;72.33
69713;BME280;56980;51.826;4.424;2022-11-20T04:01:07;101311.41;;;0.99;71.83
69713;BME280;56980;51.826;4.424;2022-11-20T04:03:34;101296.09;;;0.96;72.00
69713;BME280;56980;51.826;4.424;2022-11-20T04:06:08;101376.44;;;1.43;72.52
69713;BME280;56980;51.826;4.424;2022-11-20T04:08:34;101356.75;;;1.25;72.57
69713;BME280;56980;51.826;4.424;2022-11-20T04:11:26;101362.22;;;1.36;72.39
69713;BME280;56980;51.826;4.424;2022-11-20T04:14:03;101321.53;;;1.16;72.45
69713;BME280;56980;51.826;4.424;2022-11-20T04:16:34;101358.50;;;1.40;72.28
69713;BME280;56980;51.826;4.424;2022-11-20T04:19:03;101353.09;;;1.37;72.38
69713;BME280;56980;51.826;4.424;2022-11-20T04:21:29;101358.50;;;1.40;72.38
69713;BME280;56980;51.826;4.424;2022-11-20T04:23:57;101342.31;;;1.30;72.53
69713;BME280;56980;51.826;4.424;2022-11-20T04:26:26;101329.97;;;1.18;72.25
69713;BME280;56980;51.826;4.424;2022-11-20T04:28:51;101370.72;;;1.41;72.19
69713;BME280;56980;51.826;4.424;2022-11-20T04:31:19;101313.72;;;1.00;72.23
69713;BME280;56980;51.826;4.424;2022-11-20T04:33:45;101322.16;;;1.06;72.14
69713;BME280;56980;51.826;4.424;2022-11-20T04:36:18;101374.53;;;1.40;72.15
69713;BME280;56980;51.826;4.424;2022-11-20T04:38:44;101385.91;;;1.37;72.46
69713;BME280;56980;51.826;4.424;2022-11-20T04:41:15;101333.34;;;1.15;72.28
69713;BME280;56980;51.826;4.424;2022-11-20T04:43:41;101314.56;;;1.08;72.50
69713;BME280;56980;51.826;4.424;2022-11-20T04:46:07;101314.66;;;1.15;72.29
69713;BME280;56980;51.826;4.424;2022-11-20T04:48:34;101265.28;;;0.72;72.59
69713;BME280;56980;51.826;4.424;2022-11-20T04:51:03;101266.03;;;0.72;72.81
69713;BME280;56980;51.826;4.424;2022-11-20T04:53:31;101306.47;;;1.01;72.87
69713;BME280;56980;51.826;4.424;2022-11-20T04:56:04;101272.19;;;0.76;73.51
69713;BME280;56980;51.826;4.424;2022-11-20T04:58:33;101274.84;;;0.76;73.20
69713;BME280;56980;51.826;4.424;2022-11-20T05:01:12;101273.38;;;0.79;73.18
69713;BME280;56980;51.826;4.424;2022-11-20T05:03:40;101276.81;;;0.79;72.89
69713;BME280;56980;51.826;4.424;2022-11-20T05:06:07;101274.16;;;0.79;72.95
69713;BME280;56980;51.826;4.424;2022-11-20T05:08:43;101369.94;;;1.41;73.22
69713;BME280;56980;51.826;4.424;2022-11-20T05:11:17;101317.63;;;1.10;72.79
69713;BME280;56980;51.826;4.424;2022-11-20T05:13:47;101292.94;;;0.87;72.81
69713;BME280;56980;51.826;4.424;2022-11-20T05:16:17;101271.84;;;0.78;73.10
69713;BME280;56980;51.826;4.424;2022-11-20T05:18:47;101285.31;;;0.89;73.41
69713;BME280;56980;51.826;4.424;2022-11-20T05:21:13;101279.09;;;0.81;73.29
69713;BME280;56980;51.826;4.424;2022-11-20T05:23:42;101303.38;;;0.99;73.35
69713;BME280;56980;51.826;4.424;2022-11-20T05:26:14;101294.63;;;0.98;73.76
69713;BME280;56980;51.826;4.424;2022-11-20T05:28:43;101276.84;;;0.83;73.61
69713;BME280;56980;51.826;4.424;2022-11-20T05:31:20;101274.91;;;0.80;73.96
69713;BME280;56980;51.826;4.424;2022-11-20T05:34:09;101272.06;;;0.96;73.61
69713;BME280;56980;51.826;4.424;2022-11-20T05:36:40;101268.50;;;0.85;74.05
69713;BME280;56980;51.826;4.424;2022-11-20T05:39:10;101270.53;;;0.95;73.55
69713;BME280;56980;51.826;4.424;2022-11-20T05:41:37;101264.06;;;0.96;74.02
69713;BME280;56980;51.826;4.424;2022-11-20T05:44:06;101297.69;;;1.30;73.54
69713;BME280;56980;51.826;4.424;2022-11-20T05:46:32;101246.13;;;0.93;73.46
69713;BME280;56980;51.826;4.424;2022-11-20T05:49:01;101323.69;;;1.33;73.57
69713;BME280;56980;51.826;4.424;2022-11-20T05:51:27;101284.16;;;1.16;73.96
69713;BME280;56980;51.826;4.424;2022-11-20T05:53:53;101324.06;;;1.35;73.85
69713;BME280;56980;51.826;4.424;2022-11-20T05:56:22;101231.47;;;0.79;73.94
69713;BME280;56980;51.826;4.424;2022-11-20T05:58:48;101263.41;;;1.02;73.90
69713;BME280;56980;51.826;4.424;2022-11-20T06:01:21;101304.00;;;1.45;73.40
69713;BME280;56980;51.826;4.424;2022-11-20T06:03:47;101228.59;;;0.95;73.36
69713;BME280;56980;51.826;4.424;2022-11-20T06:06:18;101222.13;;;0.93;73.46
69713;BME280;56980;51.826;4.424;2022-11-20T23:15:43;100713.44;;;8.52;75.93
69713;BME280;56980;51.826;4.424;2022-11-20T23:18:09;100696.28;;;8.58;75.58
69713;BME280;56980;51.826;4.424;2022-11-20T23:20:37;100635.78;;;8.11;75.10
69713;BME280;56980;51.826;4.424;2022-11-20T23:23:02;100647.25;;;8.31;75.74
69713;BME280;56980;51.826;4.424;2022-11-20T23:25:28;100689.94;;;8.65;74.35
69713;BME280;56980;51.826;4.424;2022-11-20T23:27:53;100678.50;;;8.28;72.95
69713;BME280;56980;51.826;4.424;2022-11-20T23:30:20;100667.72;;;8.28;72.70
